sensor_id;sensor_type;location;lat;lon;timestamp;temperature;humidity
15834;DHT22;8017;50.812;4.934;2023-06-10T00:01:46;21.50;99.90
15834;DHT22;8017;50.812;4.934;2023-06-10T00:04:48;21.40;99.90
15834;DHT22;8017;50.812;4.934;2023-06-10T00:07:51;21.40;99.90
15834;DHT22;8017;50.812;4.934;2023-06-10T00:10:56;21.40;99.90
15834;DHT22;8017;50.812;4.934;2023-06-10T00:13:58;21.40;99.90
15834;DHT22;8017;50.812;4.934;2023-06-10T00:17:00;21.30;99.90
15834;DHT22;8017;50.812;4.934;2023-06-10T00:20:03;21.30;99.90
15834;DHT22;8017;50.812;4.934;2023-06-10T00:23:10;21.20;99.90
15834;DHT22;8017;50.812;4.934;2023-06-10T00:26:12;21.20;99.90
15834;DHT22;8017;50.812;4.934;2023-06-10T00:29:14;21.20;99.90
15834;DHT22;8017;50.812;4.934;2023-06-10T00:32:16;21.20;99.90
15834;DHT22;8017;50.812;4.934;2023-06-10T00:35:18;21.20;99.90
15834;DHT22;8017;50.812;4.934;2023-06-10T00:38:21;21.10;99.90
15834;DHT22;8017;50.812;4.934;2023-06-10T00:41:23;21.10;99.90
15834;DHT22;8017;50.812;4.934;2023-06-10T00:44:26;21.00;99.90
15834;DHT22;8017;50.812;4.934;2023-06-10T00:47:28;21.00;99.90
15834;DHT22;8017;50.812;4.934;2023-06-10T00:50:31;20.90;99.90
15834;DHT22;8017;50.812;4.934;2023-06-10T00:53:36;20.90;99.90
15834;DHT22;8017;50.812;4.934;2023-06-10T00:56:40;20.80;99.90
15834;DHT22;8017;50.812;4.934;2023-06-10T00:59:47;20.80;99.90
15834;DHT22;8017;50.812;4.934;2023-06-10T01:02:49;20.80;99.90
15834;DHT22;8017;50.812;4.934;2023-06-10T01:05:59;20.90;99.90
15834;DHT22;8017;50.812;4.934;2023-06-10T01:09:16;20.80;99.90
15834;DHT22;8017;50.812;4.934;2023-06-10T01:12:27;20.80;99.90
15834;DHT22;8017;50.812;4.934;2023-06-10T01:15:31;20.70;99.90
15834;DHT22;8017;50.812;4.934;2023-06-10T01:18:33;20.70;99.90
15834;DHT22;8017;50.812;4.934;2023-06-10T01:21:39;20.60;99.90
15834;DHT22;8017;50.812;4.934;2023-06-10T01:24:41;20.60;99.90
15834;DHT22;8017;50.812;4.934;2023-06-10T01:27:46;20.60;99.90
15834;DHT22;8017;50.812;4.934;2023-06-10T01:31:02;20.50;99.90
15834;DHT22;8017;50.812;4.934;2023-06-10T01:34:10;20.50;99.90
15834;DHT22;8017;50.812;4.934;2023-06-10T01:37:18;20.50;99.90
15834;DHT22;8017;50.812;4.934;2023-06-10T01:40:20;20.50;99.90
15834;DHT22;8017;50.812;4.934;2023-06-10T01:43:23;20.40;99.90
15834;DHT22;8017;50.812;4.934;2023-06-10T01:46:25;20.40;99.90
15834;DHT22;8017;50.812;4.934;2023-06-10T01:49:27;20.40;99.90
15834;DHT22;8017;50.812;4.934;2023-06-10T01:52:30;20.30;99.90
15834;DHT22;8017;50.812;4.934;2023-06-10T01:55:32;20.30;99.90
15834;DHT22;8017;50.812;4.934;2023-06-10T01:58:34;20.20;99.90
15834;DHT22;8017;50.812;4.934;2023-06-10T02:01:36;20.10;99.90
15834;DHT22;8017;50.812;4.934;2023-06-10T02:04:38;20.10;99.90
15834;DHT22;8017;50.812;4.934;2023-06-10T02:07:41;20.10;99.90
15834;DHT22;8017;50.812;4.934;2023-06-10T02:10:43;20.00;99.90
15834;DHT22;8017;50.812;4.934;2023-06-10T02:13:45;20.00;99.90
15834;DHT22;8017;50.812;4.934;2023-06-10T02:16:47;19.90;99.90
15834;DHT22;8017;50.812;4.934;2023-06-10T02:19:49;19.90;99.90
15834;DHT22;8017;50.812;4.934;2023-06-10T02:22:54;19.90;99.90
15834;DHT22;8017;50.812;4.934;2023-06-10T02:25:56;19.90;99.90
15834;DHT22;8017;50.812;4.934;2023-06-10T02:28:58;19.90;99.90
15834;DHT22;8017;50.812;4.934;2023-06-10T02:32:01;19.80;99.90
15834;DHT22;8017;50.812;4.934;2023-06-10T02:35:03;19.70;99.90
15834;DHT22;8017;50.812;4.934;2023-06-10T02:38:07;19.60;99.90
15834;DHT22;8017;50.812;4.934;2023-06-10T02:41:09;19.60;99.90
15834;DHT22;8017;50.812;4.934;2023-06-10T02:44:11;19.50;99.90
15834;DHT22;8017;50.812;4.934;2023-06-10T02:47:12;19.50;99.90
15834;DHT22;8017;50.812;4.934;2023-06-10T02:50:14;19.50;99.90
15834;DHT22;8017;50.812;4.934;2023-06-10T02:53:18;19.40;99.90
15834;DHT22;8017;50.812;4.934;2023-06-10T02:56:19;19.30;99.90
15834;DHT22;8017;50.812;4.934;2023-06-10T02:59:22;19.30;99.90
15834;DHT22;8017;50.812;4.934;2023-06-10T03:02:24;19.30;99.90
15834;DHT22;8017;50.812;4.934;2023-06-10T03:05:28;19.30;99.90
15834;DHT22;8017;50.812;4.934;2023-06-10T03:08:31;19.30;99.90
15834;DHT22;8017;50.812;4.934;2023-06-10T03:11:33;19.20;99.90
15834;DHT22;8017;50.812;4.934;2023-06-10T03:14:36;19.20;99.90
15834;DHT22;8017;50.812;4.934;2023-06-10T03:17:39;19.20;99.90
15834;DHT22;8017;50.812;4.934;2023-06-10T03:20:41;19.10;99.90
15834;DHT22;8017;50.812;4.934;2023-06-10T03:23:46;19.10;99.90
15834;DHT22;8017;50.812;4.934;2023-06-10T03:26:48;19.10;99.90
15834;DHT22;8017;50.812;4.934;2023-06-10T03:29:50;19.10;99.90
15834;DHT22;8017;50.812;4.934;2023-06-10T03:32:52;19.10;99.90
15834;DHT22;8017;50.812;4.934;2023-06-10T03:35:53;19.10;99.90
15834;DHT22;8017;50.812;4.934;2023-06-10T03:38:57;19.10;99.90
15834;DHT22;8017;50.812;4.934;2023-06-10T03:41:59;19.10;99.90
15834;DHT22;8017;50.812;4.934;2023-06-10T03:45:00;19.10;99.90
15834;DHT22;8017;50.812;4.934;2023-06-10T03:48:03;19.10;99.90
15834;DHT22;8017;50.812;4.934;2023-06-10T03:51:05;19.20;99.90
15834;DHT22;8017;50.812;4.934;2023-06-10T03:54:08;19.10;99.90
15834;DHT22;8017;50.812;4.934;2023-06-10T03:57:10;19.20;99.90
15834;DHT22;8017;50.812;4.934;2023-06-10T04:00:14;19.30;99.90
15834;DHT22;8017;50.812;4.934;2023-06-10T04:03:16;19.30;99.90
15834;DHT22;8017;50.812;4.934;2023-06-10T04:06:17;19.30;99.90
15834;DHT22;8017;50.812;4.934;2023-06-10T04:09:21;19.40;99.90
15834;DHT22;8017;50.812;4.934;2023-06-10T04:12:23;19.90;99.90
15834;DHT22;8017;50.812;4.934;2023-06-10T04:15:25;20.50;99.90
15834;DHT22;8017;50.812;4.934;2023-06-10T04:18:27;21.10;99.90
15834;DHT22;8017;50.812;4.934;2023-06-10T04:21:29;21.70;99.90
15834;DHT22;8017;50.812;4.934;2023-06-10T04:24:32;22.10;99.90
15834;DHT22;8017;50.812;4.934;2023-06-10T04:27:34;22.60;99.90
15834;DHT22;8017;50.812;4.934;2023-06-10T04:30:36;22.90;99.90
15834;DHT22;8017;50.812;4.934;2023-06-10T04:33:37;23.20;99.90
15834;DHT22;8017;50.812;4.934;2023-06-10T04:36:39;23.50;99.90
15834;DHT22;8017;50.812;4.934;2023-06-10T04:39:43;23.90;99.90
15834;DHT22;8017;50.812;4.934;2023-06-10T04:42:45;24.00;99.90
15834;DHT22;8017;50.812;4.934;2023-06-10T04:45:47;24.20;99.90
15834;DHT22;8017;50.812;4.934;2023-06-10T04:48:49;24.30;99.90
15834;DHT22;8017;50.812;4.934;2023-06-10T04:51:51;24.50;99.90
15834;DHT22;8017;50.812;4.934;2023-06-10T04:54:54;24.80;99.90
15834;DHT22;8017;50.812;4.934;2023-06-10T04:57:56;24.90;99.90
15834;DHT22;8017;50.812;4.934;2023-06-10T05:00:58;24.60;99.90
15834;DHT22;8017;50.812;4.934;2023-06-10T05:04:00;23.50;99.90
15834;DHT22;8017;50.812;4.934;2023-06-10T05:07:06;22.40;99.90
15834;DHT22;8017;50.812;4.934;2023-06-10T05:10:10;21.80;99.90
15834;DHT22;8017;50.812;4.934;2023-06-10T05:13:12;21.40;99.90
15834;DHT22;8017;50.812;4.934;2023-06-10T05:16:14;21.20;99.90
15834;DHT22;8017;50.812;4.934;2023-06-10T05:19:16;21.20;99.90
15834;DHT22;8017;50.812;4.934;2023-06-10T05:22:18;21.10;99.90
15834;DHT22;8017;50.812;4.934;2023-06-10T05:25:22;21.10;99.90
15834;DHT22;8017;50.812;4.934;2023-06-10T05:28:24;21.20;99.90
15834;DHT22;8017;50.812;4.934;2023-06-10T05:31:26;21.20;99.90
15834;DHT22;8017;50.812;4.934;2023-06-10T05:34:29;21.30;99.90
15834;DHT22;8017;50.812;4.934;2023-06-10T05:37:30;21.30;99.90
15834;DHT22;8017;50.812;4.934;2023-06-10T05:40:34;21.30;99.90
15834;DHT22;8017;50.812;4.934;2023-06-10T05:43:36;21.40;99.90
15834;DHT22;8017;50.812;4.934;2023-06-10T05:46:38;21.60;99.90
15834;DHT22;8017;50.812;4.934;2023-06-10T05:49:43;21.60;99.90
15834;DHT22;8017;50.812;4.934;2023-06-10T05:52:46;21.60;99.90
15834;DHT22;8017;50.812;4.934;2023-06-10T05:55:49;21.60;99.90
15834;DHT22;8017;50.812;4.934;2023-06-10T05:58:52;21.70;99.90
15834;DHT22;8017;50.812;4.934;2023-06-10T06:01:55;21.80;99.90
15834;DHT22;8017;50.812;4.934;2023-06-10T06:04:57;21.90;99.90
15834;DHT22;8017;50.812;4.934;2023-06-10T06:07:58;21.90;99.90
15834;DHT22;8017;50.812;4.934;2023-06-10T06:11:02;21.90;99.90
15834;DHT22;8017;50.812;4.934;2023-06-10T06:14:04;21.90;99.90
15834;DHT22;8017;50.812;4.934;2023-06-10T06:17:06;22.00;99.90
15834;DHT22;8017;50.812;4.934;2023-06-10T06:20:08;21.90;99.90
15834;DHT22;8017;50.812;4.934;2023-06-10T06:23:10;22.00;99.90
15834;DHT22;8017;50.812;4.934;2023-06-10T06:26:13;22.10;99.90
15834;DHT22;8017;50.812;4.934;2023-06-10T06:29:15;22.10;99.90
15834;DHT22;8017;50.812;4.934;2023-06-10T06:32:17;22.40;99.90
15834;DHT22;8017;50.812;4.934;2023-06-10T06:35:19;22.50;99.90
15834;DHT22;8017;50.812;4.934;2023-06-10T06:38:21;22.70;99.90
15834;DHT22;8017;50.812;4.934;2023-06-10T06:41:26;22.70;99.90
15834;DHT22;8017;50.812;4.934;2023-06-10T06:44:28;22.80;99.90
15834;DHT22;8017;50.812;4.934;2023-06-10T06:47:30;22.90;99.90
15834;DHT22;8017;50.812;4.934;2023-06-10T06:50:32;23.10;99.90
15834;DHT22;8017;50.812;4.934;2023-06-10T06:53:33;23.20;99.90
15834;DHT22;8017;50.812;4.934;2023-06-10T06:56:37;23.30;99.90
15834;DHT22;8017;50.812;4.934;2023-06-10T06:59:39;23.40;99.90
15834;DHT22;8017;50.812;4.934;2023-06-10T07:02:41;23.50;99.90
15834;DHT22;8017;50.812;4.934;2023-06-10T07:05:43;23.60;99.90
15834;DHT22;8017;50.812;4.934;2023-06-10T07:08:45;23.60;99.90
15834;DHT22;8017;50.812;4.934;2023-06-10T07:11:48;23.60;99.90
15834;DHT22;8017;50.812;4.934;2023-06-10T07:14:50;23.60;99.90
15834;DHT22;8017;50.812;4.934;2023-06-10T07:17:52;23.70;99.90
15834;DHT22;8017;50.812;4.934;2023-06-10T07:20:54;23.90;99.90
15834;DHT22;8017;50.812;4.934;2023-06-10T07:23:56;23.80;99.90
15834;DHT22;8017;50.812;4.934;2023-06-10T07:26:59;23.90;99.90
15834;DHT22;8017;50.812;4.934;2023-06-10T07:30:01;24.20;99.90
15834;DHT22;8017;50.812;4.934;2023-06-10T07:33:03;24.30;99.90
15834;DHT22;8017;50.812;4.934;2023-06-10T07:36:08;24.30;99.90
15834;DHT22;8017;50.812;4.934;2023-06-10T07:39:10;24.40;99.90
15834;DHT22;8017;50.812;4.934;2023-06-10T07:42:13;24.40;99.90
15834;DHT22;8017;50.812;4.934;2023-06-10T07:45:15;24.50;99.90
15834;DHT22;8017;50.812;4.934;2023-06-10T07:48:17;24.70;99.90
15834;DHT22;8017;50.812;4.934;2023-06-10T07:51:20;24.90;99.90
15834;DHT22;8017;50.812;4.934;2023-06-10T07:54:22;25.00;99.90
15834;DHT22;8017;50.812;4.934;2023-06-10T07:57:25;25.10;99.90
15834;DHT22;8017;50.812;4.934;2023-06-10T08:00:27;25.20;99.90
15834;DHT22;8017;50.812;4.934;2023-06-10T08:03:29;25.20;99.90
15834;DHT22;8017;50.812;4.934;2023-06-10T08:06:31;25.20;99.90
15834;DHT22;8017;50.812;4.934;2023-06-10T08:09:33;25.30;99.90
15834;DHT22;8017;50.812;4.934;2023-06-10T08:12:36;25.40;99.90
15834;DHT22;8017;50.812;4.934;2023-06-10T08:15:38;25.50;99.90
15834;DHT22;8017;50.812;4.934;2023-06-10T08:18:41;25.60;99.90
15834;DHT22;8017;50.812;4.934;2023-06-10T08:21:42;25.90;99.90
15834;DHT22;8017;50.812;4.934;2023-06-10T08:24:44;26.00;99.90
15834;DHT22;8017;50.812;4.934;2023-06-10T08:27:48;26.10;99.90
15834;DHT22;8017;50.812;4.934;2023-06-10T08:30:51;26.30;99.90
15834;DHT22;8017;50.812;4.934;2023-06-10T08:33:53;26.40;99.90
15834;DHT22;8017;50.812;4.934;2023-06-10T08:36:55;26.50;99.90
15834;DHT22;8017;50.812;4.934;2023-06-10T08:39:57;26.40;99.90
15834;DHT22;8017;50.812;4.934;2023-06-10T08:43:06;26.40;99.90
15834;DHT22;8017;50.812;4.934;2023-06-10T08:46:09;26.60;99.90
15834;DHT22;8017;50.812;4.934;2023-06-10T08:49:17;26.70;99.90
15834;DHT22;8017;50.812;4.934;2023-06-10T08:52:21;26.90;99.90
15834;DHT22;8017;50.812;4.934;2023-06-10T08:55:26;27.00;99.90
15834;DHT22;8017;50.812;4.934;2023-06-10T08:58:32;27.00;99.90
15834;DHT22;8017;50.812;4.934;2023-06-10T09:01:40;27.20;99.90
15834;DHT22;8017;50.812;4.934;2023-06-10T09:04:43;27.20;99.90
15834;DHT22;8017;50.812;4.934;2023-06-10T09:07:46;27.20;99.90
15834;DHT22;8017;50.812;4.934;2023-06-10T09:10:49;27.20;99.90
15834;DHT22;8017;50.812;4.934;2023-06-10T09:13:52;27.30;99.90
15834;DHT22;8017;50.812;4.934;2023-06-10T09:16:55;27.30;99.90
15834;DHT22;8017;50.812;4.934;2023-06-10T09:19:59;27.40;99.90
15834;DHT22;8017;50.812;4.934;2023-06-10T09:23:03;27.40;99.90
15834;DHT22;8017;50.812;4.934;2023-06-10T09:26:08;27.40;99.90
15834;DHT22;8017;50.812;4.934;2023-06-10T09:29:12;27.40;99.90
15834;DHT22;8017;50.812;4.934;2023-06-10T09:32:14;27.50;99.90
15834;DHT22;8017;50.812;4.934;2023-06-10T09:35:16;27.60;99.90
15834;DHT22;8017;50.812;4.934;2023-06-10T09:38:20;27.40;99.90
15834;DHT22;8017;50.812;4.934;2023-06-10T09:41:32;27.40;99.90
15834;DHT22;8017;50.812;4.934;2023-06-10T09:44:35;27.40;99.90
15834;DHT22;8017;50.812;4.934;2023-06-10T09:47:37;27.80;99.90
15834;DHT22;8017;50.812;4.934;2023-06-10T09:50:42;27.80;99.90
15834;DHT22;8017;50.812;4.934;2023-06-10T09:53:48;27.90;99.90
15834;DHT22;8017;50.812;4.934;2023-06-10T09:56:52;28.00;99.90
15834;DHT22;8017;50.812;4.934;2023-06-10T09:59:55;28.10;99.90
15834;DHT22;8017;50.812;4.934;2023-06-10T10:02:57;28.10;99.90
15834;DHT22;8017;50.812;4.934;2023-06-10T10:06:00;28.10;99.90
15834;DHT22;8017;50.812;4.934;2023-06-10T10:09:02;28.10;99.90
15834;DHT22;8017;50.812;4.934;2023-06-10T10:12:10;28.30;99.90
15834;DHT22;8017;50.812;4.934;2023-06-10T10:15:16;28.30;99.90
15834;DHT22;8017;50.812;4.934;2023-06-10T10:18:20;28.40;99.90
15834;DHT22;8017;50.812;4.934;2023-06-10T10:21:34;28.50;99.90
15834;DHT22;8017;50.812;4.934;2023-06-10T10:24:42;28.60;99.90
15834;DHT22;8017;50.812;4.934;2023-06-10T10:27:50;28.80;99.90
15834;DHT22;8017;50.812;4.934;2023-06-10T10:30:58;28.80;99.90
15834;DHT22;8017;50.812;4.934;2023-06-10T10:34:04;29.10;99.90
15834;DHT22;8017;50.812;4.934;2023-06-10T10:37:07;29.10;99.90
15834;DHT22;8017;50.812;4.934;2023-06-10T10:40:10;29.30;99.90
15834;DHT22;8017;50.812;4.934;2023-06-10T10:43:13;29.40;99.90
15834;DHT22;8017;50.812;4.934;2023-06-10T10:46:17;29.50;99.90
15834;DHT22;8017;50.812;4.934;2023-06-10T10:49:20;29.40;99.90
15834;DHT22;8017;50.812;4.934;2023-06-10T10:52:23;29.40;99.90
15834;DHT22;8017;50.812;4.934;2023-06-10T10:55:27;29.50;99.90
15834;DHT22;8017;50.812;4.934;2023-06-10T10:58:29;29.60;99.90
15834;DHT22;8017;50.812;4.934;2023-06-10T11:01:42;29.50;99.90
15834;DHT22;8017;50.812;4.934;2023-06-10T11:04:47;29.60;98.50
15834;DHT22;8017;50.812;4.934;2023-06-10T11:07:53;29.60;96.60
15834;DHT22;8017;50.812;4.934;2023-06-10T11:10:56;29.50;95.50
15834;DHT22;8017;50.812;4.934;2023-06-10T11:13:59;29.60;94.10
15834;DHT22;8017;50.812;4.934;2023-06-10T11:17:18;29.70;94.50
15834;DHT22;8017;50.812;4.934;2023-06-10T11:20:41;30.00;93.70
15834;DHT22;8017;50.812;4.934;2023-06-10T11:23:43;30.10;93.90
15834;DHT22;8017;50.812;4.934;2023-06-10T11:26:45;30.20;94.40
15834;DHT22;8017;50.812;4.934;2023-06-10T11:29:58;30.30;92.40
15834;DHT22;8017;50.812;4.934;2023-06-10T11:33:02;30.30;93.00
15834;DHT22;8017;50.812;4.934;2023-06-10T11:36:06;30.60;92.50
15834;DHT22;8017;50.812;4.934;2023-06-10T11:39:09;30.60;92.40
15834;DHT22;8017;50.812;4.934;2023-06-10T11:42:11;30.50;92.30
15834;DHT22;8017;50.812;4.934;2023-06-10T11:45:15;30.40;92.30
15834;DHT22;8017;50.812;4.934;2023-06-10T11:48:19;30.50;92.90
15834;DHT22;8017;50.812;4.934;2023-06-10T11:51:21;30.60;92.40
15834;DHT22;8017;50.812;4.934;2023-06-10T11:54:23;30.60;91.10
15834;DHT22;8017;50.812;4.934;2023-06-10T11:57:25;30.70;90.90
15834;DHT22;8017;50.812;4.934;2023-06-10T12:00:28;30.80;91.30
15834;DHT22;8017;50.812;4.934;2023-06-10T12:03:37;30.60;90.80
15834;DHT22;8017;50.812;4.934;2023-06-10T12:06:43;30.60;90.20
15834;DHT22;8017;50.812;4.934;2023-06-10T12:09:52;30.60;90.00
15834;DHT22;8017;50.812;4.934;2023-06-10T12:13:00;30.80;86.90
15834;DHT22;8017;50.812;4.934;2023-06-10T12:16:08;31.00;88.70
15834;DHT22;8017;50.812;4.934;2023-06-10T12:19:12;31.00;86.60
15834;DHT22;8017;50.812;4.934;2023-06-10T12:22:14;31.00;87.30
15834;DHT22;8017;50.812;4.934;2023-06-10T12:25:16;31.10;84.90
15834;DHT22;8017;50.812;4.934;2023-06-10T12:28:21;31.20;86.90
15834;DHT22;8017;50.812;4.934;2023-06-10T12:31:23;31.30;84.40
15834;DHT22;8017;50.812;4.934;2023-06-10T12:34:31;31.30;81.90
15834;DHT22;8017;50.812;4.934;2023-06-10T12:37:34;31.00;83.50
15834;DHT22;8017;50.812;4.934;2023-06-10T12:40:37;30.80;83.40
15834;DHT22;8017;50.812;4.934;2023-06-10T12:43:40;30.90;84.90
15834;DHT22;8017;50.812;4.934;2023-06-10T12:46:42;31.00;82.10
15834;DHT22;8017;50.812;4.934;2023-06-10T12:49:46;31.20;83.30
15834;DHT22;8017;50.812;4.934;2023-06-10T12:52:48;31.30;82.60
15834;DHT22;8017;50.812;4.934;2023-06-10T12:55:50;31.50;82.40
15834;DHT22;8017;50.812;4.934;2023-06-10T12:58:52;31.40;83.00
15834;DHT22;8017;50.812;4.934;2023-06-10T13:01:54;31.20;83.60
15834;DHT22;8017;50.812;4.934;2023-06-10T13:04:57;31.20;81.40
15834;DHT22;8017;50.812;4.934;2023-06-10T13:07:59;31.20;82.60
15834;DHT22;8017;50.812;4.934;2023-06-10T13:11:01;31.20;81.70
15834;DHT22;8017;50.812;4.934;2023-06-10T13:14:04;31.30;84.50
15834;DHT22;8017;50.812;4.934;2023-06-10T13:17:06;31.20;83.00
15834;DHT22;8017;50.812;4.934;2023-06-10T13:20:10;31.00;82.10
15834;DHT22;8017;50.812;4.934;2023-06-10T13:23:12;30.90;81.70
15834;DHT22;8017;50.812;4.934;2023-06-10T13:26:14;30.90;81.70
15834;DHT22;8017;50.812;4.934;2023-06-10T13:29:16;31.00;81.90
15834;DHT22;8017;50.812;4.934;2023-06-10T13:32:18;31.10;81.30
15834;DHT22;8017;50.812;4.934;2023-06-10T13:35:21;31.20;80.50
15834;DHT22;8017;50.812;4.934;2023-06-10T13:38:23;31.10;80.80
15834;DHT22;8017;50.812;4.934;2023-06-10T13:41:24;31.10;79.90
15834;DHT22;8017;50.812;4.934;2023-06-10T13:44:29;31.10;77.20
15834;DHT22;8017;50.812;4.934;2023-06-10T13:47:33;31.00;78.90
15834;DHT22;8017;50.812;4.934;2023-06-10T13:50:36;31.00;78.90
15834;DHT22;8017;50.812;4.934;2023-06-10T13:53:38;31.20;79.10
15834;DHT22;8017;50.812;4.934;2023-06-10T13:56:40;31.50;79.20
15834;DHT22;8017;50.812;4.934;2023-06-10T13:59:42;31.80;78.70
15834;DHT22;8017;50.812;4.934;2023-06-10T14:02:43;32.20;77.60
15834;DHT22;8017;50.812;4.934;2023-06-10T14:05:48;32.40;76.80
15834;DHT22;8017;50.812;4.934;2023-06-10T14:08:49;32.20;76.30
15834;DHT22;8017;50.812;4.934;2023-06-10T14:11:51;32.20;75.10
15834;DHT22;8017;50.812;4.934;2023-06-10T14:14:53;32.10;75.70
15834;DHT22;8017;50.812;4.934;2023-06-10T14:17:55;31.90;74.80
15834;DHT22;8017;50.812;4.934;2023-06-10T14:20:58;32.00;76.60
15834;DHT22;8017;50.812;4.934;2023-06-10T14:23:59;32.20;77.60
15834;DHT22;8017;50.812;4.934;2023-06-10T14:27:01;32.40;76.30
15834;DHT22;8017;50.812;4.934;2023-06-10T14:30:03;32.40;75.90
15834;DHT22;8017;50.812;4.934;2023-06-10T14:33:05;32.40;75.60
15834;DHT22;8017;50.812;4.934;2023-06-10T14:36:09;32.50;76.40
15834;DHT22;8017;50.812;4.934;2023-06-10T14:39:10;32.50;76.10
15834;DHT22;8017;50.812;4.934;2023-06-10T14:42:12;32.40;76.30
15834;DHT22;8017;50.812;4.934;2023-06-10T14:45:14;32.30;75.40
15834;DHT22;8017;50.812;4.934;2023-06-10T14:48:16;32.40;74.90
15834;DHT22;8017;50.812;4.934;2023-06-10T14:51:19;32.40;76.30
15834;DHT22;8017;50.812;4.934;2023-06-10T14:54:21;32.00;76.70
15834;DHT22;8017;50.812;4.934;2023-06-10T14:57:23;31.90;75.60
15834;DHT22;8017;50.812;4.934;2023-06-10T15:00:25;32.10;74.90
15834;DHT22;8017;50.812;4.934;2023-06-10T15:03:27;32.40;75.50
15834;DHT22;8017;50.812;4.934;2023-06-10T15:06:31;32.70;75.00
15834;DHT22;8017;50.812;4.934;2023-06-10T15:09:33;32.80;74.10
15834;DHT22;8017;50.812;4.934;2023-06-10T15:12:38;33.00;74.30
15834;DHT22;8017;50.812;4.934;2023-06-10T15:15:40;33.10;72.90
15834;DHT22;8017;50.812;4.934;2023-06-10T15:18:42;33.20;72.50
15834;DHT22;8017;50.812;4.934;2023-06-10T15:21:45;33.20;72.70
15834;DHT22;8017;50.812;4.934;2023-06-10T15:24:47;33.40;73.00
15834;DHT22;8017;50.812;4.934;2023-06-10T15:27:49;33.80;68.20
15834;DHT22;8017;50.812;4.934;2023-06-10T15:30:52;34.00;68.20
15834;DHT22;8017;50.812;4.934;2023-06-10T15:33:54;34.20;69.10
15834;DHT22;8017;50.812;4.934;2023-06-10T15:36:57;34.20;69.80
15834;DHT22;8017;50.812;4.934;2023-06-10T15:39:59;34.30;67.50
15834;DHT22;8017;50.812;4.934;2023-06-10T15:43:01;34.40;68.20
15834;DHT22;8017;50.812;4.934;2023-06-10T15:46:02;34.50;67.70
15834;DHT22;8017;50.812;4.934;2023-06-10T15:49:05;34.50;67.50
15834;DHT22;8017;50.812;4.934;2023-06-10T15:52:08;34.60;67.70
15834;DHT22;8017;50.812;4.934;2023-06-10T15:55:10;34.70;66.90
15834;DHT22;8017;50.812;4.934;2023-06-10T15:58:12;34.80;66.80
15834;DHT22;8017;50.812;4.934;2023-06-10T16:01:14;35.10;65.50
15834;DHT22;8017;50.812;4.934;2023-06-10T16:04:16;34.80;66.50
15834;DHT22;8017;50.812;4.934;2023-06-10T16:07:19;34.00;65.40
15834;DHT22;8017;50.812;4.934;2023-06-10T16:10:21;33.40;66.70
15834;DHT22;8017;50.812;4.934;2023-06-10T16:13:24;32.80;67.10
15834;DHT22;8017;50.812;4.934;2023-06-10T16:16:26;32.60;68.00
15834;DHT22;8017;50.812;4.934;2023-06-10T16:19:28;33.10;68.80
15834;DHT22;8017;50.812;4.934;2023-06-10T16:22:31;33.70;67.30
15834;DHT22;8017;50.812;4.934;2023-06-10T16:25:33;33.60;65.80
15834;DHT22;8017;50.812;4.934;2023-06-10T16:28:35;34.00;66.30
15834;DHT22;8017;50.812;4.934;2023-06-10T16:31:37;34.30;64.80
15834;DHT22;8017;50.812;4.934;2023-06-10T16:34:39;34.60;64.80
15834;DHT22;8017;50.812;4.934;2023-06-10T16:37:42;34.80;64.90
15834;DHT22;8017;50.812;4.934;2023-06-10T16:40:45;35.30;65.00
15834;DHT22;8017;50.812;4.934;2023-06-10T16:43:47;35.40;64.80
15834;DHT22;8017;50.812;4.934;2023-06-10T16:46:48;35.30;65.50
15834;DHT22;8017;50.812;4.934;2023-06-10T16:49:50;34.80;67.20
15834;DHT22;8017;50.812;4.934;2023-06-10T16:52:54;34.60;67.50
15834;DHT22;8017;50.812;4.934;2023-06-10T16:55:55;34.50;68.00
15834;DHT22;8017;50.812;4.934;2023-06-10T16:58:57;34.60;68.20
15834;DHT22;8017;50.812;4.934;2023-06-10T17:01:59;34.80;68.10
15834;DHT22;8017;50.812;4.934;2023-06-10T17:05:01;34.80;69.10
15834;DHT22;8017;50.812;4.934;2023-06-10T17:08:05;35.00;68.10
15834;DHT22;8017;50.812;4.934;2023-06-10T17:11:07;34.90;68.50
15834;DHT22;8017;50.812;4.934;2023-06-10T17:14:09;34.60;69.50
15834;DHT22;8017;50.812;4.934;2023-06-10T17:17:11;34.40;69.80
15834;DHT22;8017;50.812;4.934;2023-06-10T17:20:13;34.60;68.50
15834;DHT22;8017;50.812;4.934;2023-06-10T17:23:16;34.70;67.80
15834;DHT22;8017;50.812;4.934;2023-06-10T17:26:18;34.60;68.50
15834;DHT22;8017;50.812;4.934;2023-06-10T17:29:20;34.80;68.30
15834;DHT22;8017;50.812;4.934;2023-06-10T17:32:22;34.90;67.50
15834;DHT22;8017;50.812;4.934;2023-06-10T17:35:25;34.80;67.30
15834;DHT22;8017;50.812;4.934;2023-06-10T17:38:28;34.70;67.30
15834;DHT22;8017;50.812;4.934;2023-06-10T17:41:30;34.80;67.40
15834;DHT22;8017;50.812;4.934;2023-06-10T17:44:32;34.70;67.20
15834;DHT22;8017;50.812;4.934;2023-06-10T17:47:33;34.80;66.80
15834;DHT22;8017;50.812;4.934;2023-06-10T17:50:35;34.80;67.20
15834;DHT22;8017;50.812;4.934;2023-06-10T17:53:39;34.60;67.70
15834;DHT22;8017;50.812;4.934;2023-06-10T17:56:41;34.40;68.20
15834;DHT22;8017;50.812;4.934;2023-06-10T17:59:43;34.40;68.50
15834;DHT22;8017;50.812;4.934;2023-06-10T18:02:44;34.50;69.00
15834;DHT22;8017;50.812;4.934;2023-06-10T18:05:46;34.40;69.20
15834;DHT22;8017;50.812;4.934;2023-06-10T18:08:49;34.30;69.40
15834;DHT22;8017;50.812;4.934;2023-06-10T18:11:51;34.30;69.50
15834;DHT22;8017;50.812;4.934;2023-06-10T18:14:53;34.10;69.50
15834;DHT22;8017;50.812;4.934;2023-06-10T18:17:54;34.00;70.40
15834;DHT22;8017;50.812;4.934;2023-06-10T18:20:56;34.00;70.50
15834;DHT22;8017;50.812;4.934;2023-06-10T18:23:59;33.80;70.30
15834;DHT22;8017;50.812;4.934;2023-06-10T18:27:01;33.70;71.10
15834;DHT22;8017;50.812;4.934;2023-06-10T18:30:03;33.50;72.00
15834;DHT22;8017;50.812;4.934;2023-06-10T18:33:05;33.40;72.80
15834;DHT22;8017;50.812;4.934;2023-06-10T18:36:07;33.10;73.70
15834;DHT22;8017;50.812;4.934;2023-06-10T18:39:10;32.60;75.60
15834;DHT22;8017;50.812;4.934;2023-06-10T18:42:11;32.00;77.00
15834;DHT22;8017;50.812;4.934;2023-06-10T18:45:13;31.40;78.40
15834;DHT22;8017;50.812;4.934;2023-06-10T18:48:15;30.80;80.00
15834;DHT22;8017;50.812;4.934;2023-06-10T18:51:16;30.30;81.30
15834;DHT22;8017;50.812;4.934;2023-06-10T18:54:20;30.00;82.30
15834;DHT22;8017;50.812;4.934;2023-06-10T18:57:21;29.70;83.40
15834;DHT22;8017;50.812;4.934;2023-06-10T19:00:23;29.40;84.30
15834;DHT22;8017;50.812;4.934;2023-06-10T19:03:25;29.30;84.30
15834;DHT22;8017;50.812;4.934;2023-06-10T19:06:29;29.20;84.50
15834;DHT22;8017;50.812;4.934;2023-06-10T19:09:32;29.10;84.50
15834;DHT22;8017;50.812;4.934;2023-06-10T19:12:33;29.10;84.70
15834;DHT22;8017;50.812;4.934;2023-06-10T19:15:35;29.00;85.00
15834;DHT22;8017;50.812;4.934;2023-06-10T19:18:37;28.90;85.30
15834;DHT22;8017;50.812;4.934;2023-06-10T19:21:39;28.80;85.40
15834;DHT22;8017;50.812;4.934;2023-06-10T19:24:42;28.60;86.70
15834;DHT22;8017;50.812;4.934;2023-06-10T19:27:44;28.50;87.80
15834;DHT22;8017;50.812;4.934;2023-06-10T19:30:46;28.40;88.30
15834;DHT22;8017;50.812;4.934;2023-06-10T19:33:47;28.20;90.00